createdAt,value
2023-03-19T00:02:09.000Z,6.47
2023-03-19T00:05:18.982Z,7.33
2023-03-19T00:08:22.663Z,6.47
2023-03-19T00:11:25.797Z,7.10
2023-03-19T00:14:30.115Z,6.47
2023-03-19T00:17:33.045Z,7.17
2023-03-19T00:20:36.478Z,7.63
2023-03-19T00:23:39.462Z,7.23
2023-03-19T00:26:42.475Z,7.97
2023-03-19T00:29:46.771Z,7.37
2023-03-19T00:32:49.974Z,7.57
2023-03-19T00:35:54.170Z,7.40
2023-03-19T00:38:57.520Z,8.50
2023-03-19T00:42:00.625Z,7.80
2023-03-19T00:45:05.428Z,7.87
2023-03-19T00:48:08.431Z,9.17
2023-03-19T00:51:12.300Z,9.50
2023-03-19T00:54:15.408Z,9.37
2023-03-19T00:57:18.371Z,9.20
2023-03-19T01:00:23.479Z,8.20
2023-03-19T01:03:26.417Z,7.60
2023-03-19T01:06:29.392Z,8.73
2023-03-19T01:09:32.738Z,7.30
2023-03-19T01:12:35.894Z,7.90
2023-03-19T01:15:41.141Z,7.27
2023-03-19T01:18:44.121Z,7.33
2023-03-19T01:21:47.182Z,7.40
2023-03-19T01:24:50.270Z,7.87
2023-03-19T01:27:53.401Z,7.47
2023-03-19T01:31:01.848Z,7.63
2023-03-19T01:34:05.717Z,8.47
2023-03-19T01:37:09.305Z,5.83
2023-03-19T01:40:13.996Z,7.53
2023-03-19T01:43:19.339Z,6.83
2023-03-19T01:46:29.698Z,6.03
2023-03-19T01:49:33.121Z,6.60
2023-03-19T01:52:36.487Z,6.93
2023-03-19T01:55:41.671Z,6.47
2023-03-19T01:58:47.508Z,6.63
2023-03-19T02:01:58.406Z,8.27
2023-03-19T02:05:04.429Z,6.20
2023-03-19T02:08:09.945Z,6.37
2023-03-19T02:11:13.154Z,6.03
2023-03-19T02:14:16.091Z,6.90
2023-03-19T02:17:21.532Z,5.90
2023-03-19T02:20:28.069Z,6.97
2023-03-19T02:23:36.831Z,5.70
2023-03-19T02:26:42.678Z,6.73
2023-03-19T02:29:45.588Z,6.10
2023-03-19T02:32:48.560Z,7.27
2023-03-19T02:35:53.300Z,6.90
2023-03-19T02:38:58.446Z,7.33
2023-03-19T02:42:04.478Z,6.93
2023-03-19T02:45:08.762Z,6.57
2023-03-19T02:48:11.717Z,6.00
2023-03-19T02:51:14.664Z,5.37
2023-03-19T02:54:17.630Z,6.20
2023-03-19T02:57:22.001Z,5.73
2023-03-19T03:00:25.555Z,5.53
2023-03-19T03:03:28.688Z,5.43
2023-03-19T03:06:32.357Z,6.17
2023-03-19T03:09:35.700Z,5.97
2023-03-19T03:12:40.080Z,5.50
2023-03-19T03:15:43.108Z,6.33
2023-03-19T03:18:46.015Z,5.37
2023-03-19T03:21:48.928Z,4.50
2023-03-19T03:24:51.882Z,5.03
2023-03-19T03:27:56.160Z,4.93
2023-03-19T03:31:02.780Z,4.77
2023-03-19T03:34:05.730Z,5.07
2023-03-19T03:37:09.313Z,4.77
2023-03-19T03:40:14.267Z,4.80
2023-03-19T03:43:19.243Z,5.17
2023-03-19T03:46:22.217Z,6.53
2023-03-19T03:49:25.250Z,4.80
2023-03-19T03:52:31.278Z,3.60
2023-03-19T03:55:34.469Z,4.10
2023-03-19T03:58:39.296Z,6.13
2023-03-19T04:01:42.271Z,4.40
2023-03-19T04:04:45.241Z,4.93
2023-03-19T04:07:48.231Z,3.90
2023-03-19T04:10:51.457Z,5.20
2023-03-19T04:13:57.699Z,4.87
2023-03-19T04:17:00.758Z,4.17
2023-03-19T04:20:04.934Z,3.90
2023-03-19T04:23:08.314Z,5.20
2023-03-19T04:26:12.204Z,5.00
2023-03-19T04:29:16.651Z,4.17
2023-03-19T04:32:19.727Z,4.53
2023-03-19T04:35:22.853Z,4.07
2023-03-19T04:38:27.577Z,4.50
2023-03-19T04:41:30.804Z,4.13
2023-03-19T04:44:35.198Z,4.63
2023-03-19T04:47:38.161Z,3.93
2023-03-19T04:50:41.307Z,4.20
2023-03-19T04:53:44.642Z,4.50
2023-03-19T04:56:47.617Z,5.40
2023-03-19T04:59:51.970Z,4.00
2023-03-19T05:02:54.938Z,4.30
2023-03-19T05:05:57.848Z,4.87
2023-03-19T05:09:00.866Z,3.97
2023-03-19T05:12:03.808Z,4.63
2023-03-19T05:15:09.467Z,4.47
2023-03-19T05:18:12.906Z,5.57
2023-03-19T05:21:16.036Z,4.37
2023-03-19T05:24:18.974Z,4.30
2023-03-19T05:27:21.972Z,5.63
2023-03-19T05:30:27.337Z,5.07
2023-03-19T05:33:30.305Z,5.10
2023-03-19T05:36:33.493Z,4.90
2023-03-19T05:39:36.438Z,5.70
2023-03-19T05:42:39.587Z,5.90
2023-03-19T05:45:43.829Z,5.47
2023-03-19T05:48:46.776Z,5.47
2023-03-19T05:51:49.854Z,6.53
2023-03-19T05:54:52.893Z,6.60
2023-03-19T05:57:55.897Z,5.93
2023-03-19T06:01:00.245Z,6.47
2023-03-19T06:04:05.614Z,5.00
2023-03-19T06:07:09.243Z,5.37
2023-03-19T06:10:13.005Z,5.60
2023-03-19T06:13:16.095Z,5.50
2023-03-19T06:16:20.442Z,6.27
2023-03-19T06:19:23.865Z,5.60
2023-03-19T06:22:26.965Z,8.60
2023-03-19T06:25:29.953Z,7.17
2023-03-19T06:28:33.902Z,8.23
2023-03-19T06:31:39.386Z,6.83
2023-03-19T06:34:42.465Z,6.67
2023-03-19T06:37:45.401Z,6.63
2023-03-19T06:40:48.342Z,5.57
2023-03-19T06:43:51.461Z,5.63
2023-03-19T06:46:55.750Z,6.53
2023-03-19T06:49:59.768Z,6.30
2023-03-19T06:53:03.246Z,6.43
2023-03-19T06:56:06.559Z,6.07
2023-03-19T06:59:13.012Z,5.97
2023-03-19T07:02:17.323Z,7.57
2023-03-19T07:05:20.373Z,6.17
2023-03-19T07:08:23.427Z,5.50
2023-03-19T07:11:26.393Z,6.00
2023-03-19T07:14:29.496Z,6.03
2023-03-19T07:17:33.760Z,7.37
2023-03-19T07:20:37.118Z,5.77
2023-03-19T07:23:40.245Z,5.70
2023-03-19T07:26:43.983Z,6.70
2023-03-19T07:29:46.944Z,7.03
2023-03-19T07:32:51.292Z,6.00
2023-03-19T07:35:54.407Z,6.33
2023-03-19T07:38:57.454Z,6.20
2023-03-19T07:42:00.436Z,5.50
2023-03-19T07:45:03.857Z,6.37
2023-03-19T07:48:08.485Z,5.40
2023-03-19T07:51:11.455Z,5.47
2023-03-19T07:54:14.425Z,5.90
2023-03-19T07:57:17.478Z,5.60
2023-03-19T08:00:20.929Z,6.33
2023-03-19T08:03:25.206Z,5.30
2023-03-19T08:06:28.252Z,7.60
2023-03-19T08:09:32.228Z,5.17
2023-03-19T08:12:40.901Z,6.80
2023-03-19T08:15:44.003Z,6.80
2023-03-19T08:18:48.889Z,4.90
2023-03-19T08:21:52.560Z,5.07
2023-03-19T08:24:55.546Z,7.77
2023-03-19T08:27:58.572Z,5.97
2023-03-19T08:31:08.163Z,5.53
2023-03-19T08:34:12.569Z,5.10
2023-03-19T08:37:15.596Z,5.07
2023-03-19T08:40:18.601Z,5.53
2023-03-19T08:43:21.528Z,4.80
2023-03-19T08:46:24.586Z,7.03
2023-03-19T08:49:28.959Z,5.97
2023-03-19T08:52:32.015Z,5.40
2023-03-19T08:55:34.983Z,5.67
2023-03-19T08:58:38.080Z,5.07
2023-03-19T09:01:41.824Z,5.03
2023-03-19T09:04:46.899Z,4.67
2023-03-19T09:07:51.900Z,5.00
2023-03-19T09:10:55.049Z,4.93
2023-03-19T09:13:58.038Z,4.10
2023-03-19T09:17:01.235Z,5.53
2023-03-19T09:20:07.400Z,5.27
2023-03-19T09:23:10.989Z,4.50
2023-03-19T09:26:13.928Z,5.40
2023-03-19T09:29:17.704Z,5.30
2023-03-19T09:32:20.945Z,3.80
2023-03-19T09:35:26.596Z,5.87
2023-03-19T09:38:29.691Z,2.80
2023-03-19T09:41:40.953Z,2.33
2023-03-19T09:44:46.514Z,2.73
2023-03-19T09:47:53.610Z,2.30
2023-03-19T09:51:01.218Z,3.10
2023-03-19T09:54:08.611Z,3.13
2023-03-19T09:57:14.925Z,2.40
2023-03-19T10:00:24.390Z,2.90
2023-03-19T10:03:43.104Z,3.00
2023-03-19T10:06:48.255Z,3.70
2023-03-19T10:10:04.307Z,3.97
2023-03-19T10:13:19.177Z,2.30
2023-03-19T10:16:24.843Z,3.17
2023-03-19T10:19:40.488Z,4.03
2023-03-19T10:22:48.732Z,3.27
2023-03-19T10:25:55.046Z,3.43
2023-03-19T10:29:04.750Z,4.43
2023-03-19T10:32:18.266Z,2.77
2023-03-19T10:35:25.329Z,2.53
2023-03-19T10:38:33.419Z,2.80
2023-03-19T10:41:48.213Z,2.97
2023-03-19T10:44:54.938Z,2.53
2023-03-19T10:47:59.345Z,4.70
2023-03-19T10:51:05.486Z,3.90
2023-03-19T10:54:21.602Z,1.83
2023-03-19T10:57:28.439Z,1.47
2023-03-19T11:00:33.730Z,1.47
2023-03-19T11:03:38.579Z,3.80
2023-03-19T11:06:41.824Z,1.43
2023-03-19T11:09:48.966Z,2.03
2023-03-19T11:12:56.757Z,3.87
2023-03-19T11:16:01.509Z,2.33
2023-03-19T11:19:04.568Z,2.20
2023-03-19T11:22:20.401Z,2.30
2023-03-19T11:25:29.390Z,2.60
2023-03-19T11:28:33.824Z,1.37
2023-03-19T11:31:42.642Z,2.23
2023-03-19T11:34:53.777Z,2.80
2023-03-19T11:37:58.517Z,2.27
2023-03-19T11:41:14.328Z,3.40
2023-03-19T11:44:23.668Z,3.47
2023-03-19T11:47:32.383Z,2.93
2023-03-19T11:50:48.252Z,2.53
2023-03-19T11:54:04.892Z,1.97
2023-03-19T11:57:17.396Z,3.83
2023-03-19T12:00:31.208Z,3.03
2023-03-19T12:04:10.948Z,3.07
2023-03-19T12:07:24.602Z,3.30
2023-03-19T12:10:32.439Z,3.03
2023-03-19T12:13:45.599Z,3.13
2023-03-19T12:17:04.242Z,5.13
2023-03-19T12:20:29.321Z,3.33
2023-03-19T12:23:41.398Z,4.37
2023-03-19T12:26:56.519Z,3.70
2023-03-19T12:30:04.658Z,5.43
2023-03-19T12:33:16.032Z,3.70
2023-03-19T12:36:24.499Z,4.17
2023-03-19T12:39:33.622Z,7.17
2023-03-19T12:42:41.001Z,4.70
2023-03-19T12:45:48.819Z,3.27
2023-03-19T12:48:54.953Z,4.63
2023-03-19T12:52:04.159Z,3.80
2023-03-19T12:55:17.618Z,4.37
2023-03-19T12:58:28.244Z,3.20
2023-03-19T13:01:36.267Z,3.17
2023-03-19T13:04:47.014Z,2.50
2023-03-19T13:07:56.904Z,2.80
2023-03-19T13:11:00.818Z,3.90
2023-03-19T13:14:13.037Z,2.30
2023-03-19T13:17:25.049Z,2.97
2023-03-19T13:20:43.750Z,2.87
2023-03-19T13:23:50.999Z,2.67
2023-03-19T13:26:55.398Z,2.60
2023-03-19T13:30:17.845Z,3.43
2023-03-19T13:33:24.475Z,4.53
2023-03-19T13:36:30.715Z,4.50
2023-03-19T13:39:35.980Z,3.37
2023-03-19T13:42:42.543Z,3.07
2023-03-19T13:45:45.707Z,4.13
2023-03-19T13:48:54.573Z,2.40
2023-03-19T13:52:01.361Z,3.03
2023-03-19T13:55:32.732Z,2.43
2023-03-19T13:58:52.185Z,2.90
2023-03-19T14:01:55.491Z,3.20
2023-03-19T14:05:02.887Z,4.27
2023-03-19T14:08:19.515Z,5.27
2023-03-19T14:11:24.901Z,3.10
2023-03-19T14:14:27.932Z,3.30
2023-03-19T14:17:34.316Z,3.27
2023-03-19T14:20:48.369Z,5.07
2023-03-19T14:23:55.256Z,4.57
2023-03-19T14:27:02.224Z,2.93
2023-03-19T14:30:12.200Z,2.93
2023-03-19T14:33:20.935Z,4.23
2023-03-19T14:36:25.915Z,2.93
2023-03-19T14:39:31.309Z,3.37
2023-03-19T14:42:40.705Z,5.03
2023-03-19T14:45:50.393Z,3.00
2023-03-19T14:49:28.908Z,3.40
2023-03-19T14:52:35.913Z,6.73
2023-03-19T14:55:39.464Z,4.00
2023-03-19T14:58:53.594Z,3.43
2023-03-19T15:01:56.570Z,3.50
2023-03-19T15:05:00.879Z,4.17
2023-03-19T15:08:08.454Z,5.50
2023-03-19T15:11:36.049Z,3.77
2023-03-19T15:14:53.925Z,4.40
2023-03-19T15:18:04.218Z,4.50
2023-03-19T15:21:08.097Z,4.37
2023-03-19T15:24:17.527Z,6.53
2023-03-19T15:27:22.172Z,5.83
2023-03-19T15:30:32.584Z,7.90
2023-03-19T15:33:41.485Z,6.97
2023-03-19T15:36:47.331Z,6.77
2023-03-19T15:39:55.815Z,6.30
2023-03-19T15:43:02.179Z,7.70
2023-03-19T15:46:06.071Z,9.17
2023-03-19T15:49:13.512Z,9.00
2023-03-19T15:52:19.413Z,8.23
2023-03-19T15:55:27.181Z,8.70
2023-03-19T15:58:33.046Z,9.00
2023-03-19T16:01:36.116Z,8.10
2023-03-19T16:05:06.790Z,9.00
2023-03-19T16:08:09.213Z,9.13
2023-03-19T16:11:27.097Z,9.80
2023-03-19T16:14:40.905Z,10.30
2023-03-19T16:17:44.030Z,9.97
2023-03-19T16:20:52.418Z,9.97
2023-03-19T16:23:59.347Z,9.70
2023-03-19T16:27:07.650Z,11.03
2023-03-19T16:30:19.002Z,10.80
2023-03-19T16:33:22.464Z,10.27
2023-03-19T16:36:29.536Z,9.73
2023-03-19T16:39:35.561Z,9.63
2023-03-19T16:42:41.444Z,9.27
2023-03-19T16:45:44.954Z,10.33
2023-03-19T16:48:47.993Z,10.30
2023-03-19T16:51:51.017Z,10.53
2023-03-19T16:54:55.433Z,9.77
2023-03-19T16:58:02.995Z,10.07
2023-03-19T17:01:13.166Z,9.23
2023-03-19T17:04:17.542Z,10.30
2023-03-19T17:07:20.644Z,11.47
2023-03-19T17:10:27.278Z,12.87
2023-03-19T17:13:33.345Z,9.73
2023-03-19T17:16:36.381Z,11.83
2023-03-19T17:19:40.359Z,10.73
2023-03-19T17:22:43.306Z,13.33
2023-03-19T17:25:46.412Z,10.50
2023-03-19T17:28:51.012Z,10.37
2023-03-19T17:31:55.080Z,11.07
2023-03-19T17:34:58.455Z,11.10
2023-03-19T17:38:01.572Z,10.90
2023-03-19T17:41:13.769Z,13.80
2023-03-19T17:44:18.214Z,10.87
2023-03-19T17:47:21.293Z,10.90
2023-03-19T17:50:26.719Z,13.37
2023-03-19T17:53:30.688Z,12.50
2023-03-19T17:56:33.708Z,10.80
2023-03-19T17:59:38.027Z,11.40
2023-03-19T18:02:41.988Z,12.43
2023-03-19T18:05:45.487Z,12.90
2023-03-19T18:08:48.640Z,12.50
2023-03-19T18:11:51.797Z,12.17
2023-03-19T18:14:56.105Z,11.07
2023-03-19T18:18:01.459Z,11.43
2023-03-19T18:21:04.884Z,13.07
2023-03-19T18:24:07.997Z,13.93
2023-03-19T18:27:11.075Z,14.13
2023-03-19T18:30:18.244Z,12.40
2023-03-19T18:33:25.738Z,12.27
2023-03-19T18:36:31.140Z,12.97
2023-03-19T18:39:38.003Z,13.17
2023-03-19T18:42:40.964Z,12.53
2023-03-19T18:45:48.999Z,13.27
2023-03-19T18:49:01.555Z,12.43
2023-03-19T18:52:04.807Z,14.73
2023-03-19T18:55:08.732Z,12.67
2023-03-19T18:58:20.293Z,11.70
2023-03-19T19:01:26.147Z,13.13
2023-03-19T19:04:29.934Z,12.23
2023-03-19T19:07:33.301Z,13.40
2023-03-19T19:10:38.425Z,17.43
2023-03-19T19:13:55.440Z,15.90
2023-03-19T19:17:00.645Z,14.83
2023-03-19T19:20:03.744Z,15.17
2023-03-19T19:23:06.765Z,16.10
2023-03-19T19:26:19.321Z,15.60
2023-03-19T19:29:24.535Z,16.43
2023-03-19T19:32:30.790Z,15.80
2023-03-19T19:35:33.799Z,18.37
2023-03-19T19:38:36.798Z,19.90
2023-03-19T19:41:40.887Z,16.00
2023-03-19T19:44:45.149Z,25.53
2023-03-19T19:47:49.695Z,21.87
2023-03-19T19:50:53.413Z,21.43
2023-03-19T19:53:56.384Z,20.17
2023-03-19T19:56:59.361Z,22.90
2023-03-19T20:00:02.370Z,21.57
2023-03-19T20:03:19.337Z,27.17
2023-03-19T20:06:22.355Z,26.07
2023-03-19T20:09:26.934Z,27.03
2023-03-19T20:12:33.546Z,26.70
2023-03-19T20:15:37.031Z,28.23
2023-03-19T20:18:43.463Z,26.40
2023-03-19T20:21:46.489Z,27.77
2023-03-19T20:24:51.375Z,27.07
2023-03-19T20:27:57.230Z,27.57
2023-03-19T20:31:01.311Z,30.63
2023-03-19T20:34:05.606Z,29.40
2023-03-19T20:37:09.682Z,30.03
2023-03-19T20:40:14.605Z,30.87
2023-03-19T20:43:27.942Z,30.33
2023-03-19T20:46:31.351Z,28.10
2023-03-19T20:49:35.660Z,28.20
2023-03-19T20:52:38.665Z,28.70
2023-03-19T20:55:43.730Z,30.13
2023-03-19T20:58:47.419Z,29.43
2023-03-19T21:01:52.501Z,28.37
2023-03-19T21:04:57.007Z,28.00
2023-03-19T21:07:59.971Z,28.93
2023-03-19T21:11:03.270Z,28.53
2023-03-19T21:14:07.937Z,30.20
2023-03-19T21:17:11.772Z,26.27
2023-03-19T21:20:21.683Z,23.83
2023-03-19T21:23:31.336Z,24.07
2023-03-19T21:26:38.040Z,22.37
2023-03-19T21:29:41.014Z,22.07
2023-03-19T21:32:44.020Z,21.90
2023-03-19T21:35:48.449Z,23.53
2023-03-19T21:38:52.441Z,21.00
2023-03-19T21:41:57.112Z,20.00
2023-03-19T21:45:00.847Z,18.43
2023-03-19T21:48:23.977Z,20.63
2023-03-19T21:51:29.588Z,19.53
2023-03-19T21:54:32.563Z,18.90
2023-03-19T21:57:36.407Z,19.53
2023-03-19T22:00:39.530Z,21.33
2023-03-19T22:03:42.524Z,17.70
2023-03-19T22:06:47.064Z,17.83
2023-03-19T22:09:50.010Z,22.63
2023-03-19T22:12:53.442Z,20.37
2023-03-19T22:16:00.393Z,22.30
2023-03-19T22:19:03.520Z,20.90
2023-03-19T22:22:09.186Z,20.30
2023-03-19T22:25:13.926Z,21.87
2023-03-19T22:28:20.404Z,22.67
2023-03-19T22:31:24.083Z,21.47
2023-03-19T22:34:28.624Z,22.97
2023-03-19T22:37:32.915Z,24.07
2023-03-19T22:40:36.994Z,27.33
2023-03-19T22:43:39.942Z,23.23
2023-03-19T22:46:43.378Z,25.83
2023-03-19T22:49:46.414Z,26.10
2023-03-19T22:52:50.865Z,24.97
2023-03-19T22:55:53.936Z,22.63
2023-03-19T22:58:56.876Z,25.93
2023-03-19T23:02:01.498Z,25.90
2023-03-19T23:05:30.596Z,24.93
2023-03-19T23:08:34.906Z,30.43
2023-03-19T23:11:39.458Z,25.87
2023-03-19T23:14:42.568Z,25.40
2023-03-19T23:17:46.294Z,29.43
2023-03-19T23:20:49.389Z,26.80
2023-03-19T23:23:54.580Z,28.37
2023-03-19T23:26:59.038Z,26.70
2023-03-19T23:30:02.694Z,27.33
2023-03-19T23:33:05.819Z,29.37
2023-03-19T23:36:09.352Z,23.07
2023-03-19T23:39:14.018Z,29.00
2023-03-19T23:42:27.495Z,27.63
2023-03-19T23:45:35.226Z,29.60
2023-03-19T23:48:39.595Z,26.20
2023-03-19T23:51:42.947Z,32.50
2023-03-19T23:54:47.504Z,29.77
2023-03-19T23:57:50.969Z,30.73
